<?xml version="1.0" encoding="utf-8"?>
<gpx xmlns:xsi="http://www.w3.org/2001/XMLSchema-instance" xmlns:xsd="http://www.w3.org/2001/XMLSchema" version="1.1" creator="Shapelink.com" xmlns="http://www.topografix.com/GPX/1/1" xmlns:gpxtpx="http://www.garmin.com/xmlschemas/TrackPointExtension/v1">
  <metadata>
    <name>Kører 11.42 km, 2019-11-26</name>
    <desc></desc>
    <author><name>Per Rooth</name></author> 
    <time>2019-11-26T05:24:24Z</time>
  </metadata>
  <trk>
    <name>Kører 11.42 km, 2019-11-26</name>
    <trkseg>
      <trkpt lat="56.873148506012" lon="14.792737793157">
        <ele>177.6</ele>
        <time>2019-11-26T05:24:24Z</time>
      </trkpt>
      <trkpt lat="56.873101399734" lon="14.792733183112">
        <ele>176.2</ele>
        <time>2019-11-26T05:24:26Z</time>
      </trkpt>
      <trkpt lat="56.872922613807" lon="14.792771404576">
        <ele>175.8</ele>
        <time>2019-11-26T05:24:33Z</time>
      </trkpt>
      <trkpt lat="56.872729913926" lon="14.792852876644">
        <ele>176.4</ele>
        <time>2019-11-26T05:24:42Z</time>
      </trkpt>
      <trkpt lat="56.872549535438" lon="14.792905095881">
        <ele>176.2</ele>
        <time>2019-11-26T05:24:50Z</time>
      </trkpt>
      <trkpt lat="56.872523970643" lon="14.79289260685">
        <ele>176.2</ele>
        <time>2019-11-26T05:24:51Z</time>
      </trkpt>
      <trkpt lat="56.872325068156" lon="14.792865365675">
        <ele>176.6</ele>
        <time>2019-11-26T05:24:58Z</time>
      </trkpt>
      <trkpt lat="56.872135469578" lon="14.792855810309">
        <ele>176.4</ele>
        <time>2019-11-26T05:25:06Z</time>
      </trkpt>
      <trkpt lat="56.872065396894" lon="14.792867293512">
        <ele>176.8</ele>
        <time>2019-11-26T05:25:09Z</time>
      </trkpt>
      <trkpt lat="56.871883761121" lon="14.792958656222">
        <ele>176.4</ele>
        <time>2019-11-26T05:25:18Z</time>
      </trkpt>
      <trkpt lat="56.87170866323" lon="14.793066028361">
        <ele>176.4</ele>
        <time>2019-11-26T05:25:26Z</time>
      </trkpt>
      <trkpt lat="56.871659293839" lon="14.79309041969">
        <ele>176.2</ele>
        <time>2019-11-26T05:25:28Z</time>
      </trkpt>
      <trkpt lat="56.871460056076" lon="14.793103411635">
        <ele>176.4</ele>
        <time>2019-11-26T05:25:35Z</time>
      </trkpt>
      <trkpt lat="56.871281102511" lon="14.793038200453">
        <ele>176.4</ele>
        <time>2019-11-26T05:25:42Z</time>
      </trkpt>
      <trkpt lat="56.871109022104" lon="14.792964020638">
        <ele>175.4</ele>
        <time>2019-11-26T05:25:49Z</time>
      </trkpt>
      <trkpt lat="56.870960494836" lon="14.792906939899">
        <ele>175</ele>
        <time>2019-11-26T05:25:55Z</time>
      </trkpt>
      <trkpt lat="56.870763855462" lon="14.792813397895">
        <ele>174.4</ele>
        <time>2019-11-26T05:26:03Z</time>
      </trkpt>
      <trkpt lat="56.870590098675" lon="14.79272832161">
        <ele>174</ele>
        <time>2019-11-26T05:26:10Z</time>
      </trkpt>
      <trkpt lat="56.870509716254" lon="14.792706444851">
        <ele>174</ele>
        <time>2019-11-26T05:26:13Z</time>
      </trkpt>
      <trkpt lat="56.870455988275" lon="14.792702756815">
        <ele>173.8</ele>
        <time>2019-11-26T05:26:15Z</time>
      </trkpt>
      <trkpt lat="56.870303772971" lon="14.792639557289">
        <ele>172.8</ele>
        <time>2019-11-26T05:26:21Z</time>
      </trkpt>
      <trkpt lat="56.870112246556" lon="14.792513242056">
        <ele>172</ele>
        <time>2019-11-26T05:26:29Z</time>
      </trkpt>
      <trkpt lat="56.869988110617" lon="14.792717257502">
        <ele>172.2</ele>
        <time>2019-11-26T05:26:37Z</time>
      </trkpt>
      <trkpt lat="56.869908985481" lon="14.792968127769">
        <ele>172.4</ele>
        <time>2019-11-26T05:26:44Z</time>
      </trkpt>
      <trkpt lat="56.869822568092" lon="14.793293513127">
        <ele>172.2</ele>
        <time>2019-11-26T05:26:53Z</time>
      </trkpt>
      <trkpt lat="56.8697581951" lon="14.79351873478">
        <ele>171.6</ele>
        <time>2019-11-26T05:26:58Z</time>
      </trkpt>
      <trkpt lat="56.869649984771" lon="14.793723923692">
        <ele>171</ele>
        <time>2019-11-26T05:27:04Z</time>
      </trkpt>
      <trkpt lat="56.869563399744" lon="14.793679499622">
        <ele>170.6</ele>
        <time>2019-11-26T05:27:07Z</time>
      </trkpt>
      <trkpt lat="56.869402970178" lon="14.793505156102">
        <ele>170</ele>
        <time>2019-11-26T05:27:13Z</time>
      </trkpt>
      <trkpt lat="56.869328035992" lon="14.79340725551">
        <ele>169.6</ele>
        <time>2019-11-26T05:27:16Z</time>
      </trkpt>
      <trkpt lat="56.869276571126" lon="14.793350174771">
        <ele>169.6</ele>
        <time>2019-11-26T05:27:18Z</time>
      </trkpt>
      <trkpt lat="56.869151094083" lon="14.793312959135">
        <ele>169.4</ele>
        <time>2019-11-26T05:27:23Z</time>
      </trkpt>
      <trkpt lat="56.869079009743" lon="14.793660472709">
        <ele>168.8</ele>
        <time>2019-11-26T05:27:30Z</time>
      </trkpt>
      <trkpt lat="56.869039447175" lon="14.793986360981">
        <ele>168.6</ele>
        <time>2019-11-26T05:27:37Z</time>
      </trkpt>
      <trkpt lat="56.868987479395" lon="14.794330270338">
        <ele>168.8</ele>
        <time>2019-11-26T05:27:44Z</time>
      </trkpt>
      <trkpt lat="56.868919083091" lon="14.794666300709">
        <ele>168.8</ele>
        <time>2019-11-26T05:27:51Z</time>
      </trkpt>
      <trkpt lat="56.868908857173" lon="14.794712987892">
        <ele>168.4</ele>
        <time>2019-11-26T05:27:52Z</time>
      </trkpt>
      <trkpt lat="56.868831911331" lon="14.795048599168">
        <ele>168.6</ele>
        <time>2019-11-26T05:28:00Z</time>
      </trkpt>
      <trkpt lat="56.868787151985" lon="14.795270468061">
        <ele>168.6</ele>
        <time>2019-11-26T05:28:05Z</time>
      </trkpt>
      <trkpt lat="56.868717749853" lon="14.795575317764">
        <ele>168.6</ele>
        <time>2019-11-26T05:28:12Z</time>
      </trkpt>
      <trkpt lat="56.868645665513" lon="14.795889303738">
        <ele>168.4</ele>
        <time>2019-11-26T05:28:19Z</time>
      </trkpt>
      <trkpt lat="56.868580202874" lon="14.796219718236">
        <ele>168.6</ele>
        <time>2019-11-26T05:28:26Z</time>
      </trkpt>
      <trkpt lat="56.868511555113" lon="14.796566477439">
        <ele>169</ele>
        <time>2019-11-26T05:28:33Z</time>
      </trkpt>
      <trkpt lat="56.86844726594" lon="14.79689664048">
        <ele>169</ele>
        <time>2019-11-26T05:28:40Z</time>
      </trkpt>
      <trkpt lat="56.868383982595" lon="14.797215907051">
        <ele>168.8</ele>
        <time>2019-11-26T05:28:47Z</time>
      </trkpt>
      <trkpt lat="56.868321621259" lon="14.797545483359">
        <ele>169</ele>
        <time>2019-11-26T05:28:54Z</time>
      </trkpt>
      <trkpt lat="56.868272251868" lon="14.797910096009">
        <ele>168.8</ele>
        <time>2019-11-26T05:29:02Z</time>
      </trkpt>
      <trkpt lat="56.868220870821" lon="14.798236487195">
        <ele>168.6</ele>
        <time>2019-11-26T05:29:08Z</time>
      </trkpt>
      <trkpt lat="56.868208297971" lon="14.798343691696">
        <ele>169</ele>
        <time>2019-11-26T05:29:10Z</time>
      </trkpt>
      <trkpt lat="56.868166891385" lon="14.798710567459">
        <ele>168.2</ele>
        <time>2019-11-26T05:29:17Z</time>
      </trkpt>
      <trkpt lat="56.868118192546" lon="14.799044753812">
        <ele>169</ele>
        <time>2019-11-26T05:29:24Z</time>
      </trkpt>
      <trkpt lat="56.868077372693" lon="14.799394111404">
        <ele>168.4</ele>
        <time>2019-11-26T05:29:31Z</time>
      </trkpt>
      <trkpt lat="56.868096148149" lon="14.799729806499">
        <ele>168.2</ele>
        <time>2019-11-26T05:29:38Z</time>
      </trkpt>
      <trkpt lat="56.86817233962" lon="14.800032225451">
        <ele>168.2</ele>
        <time>2019-11-26T05:29:45Z</time>
      </trkpt>
      <trkpt lat="56.868280969044" lon="14.800319137888">
        <ele>168.2</ele>
        <time>2019-11-26T05:29:52Z</time>
      </trkpt>
      <trkpt lat="56.868373421401" lon="14.800648546558">
        <ele>167.6</ele>
        <time>2019-11-26T05:30:00Z</time>
      </trkpt>
      <trkpt lat="56.868463862102" lon="14.800971249708">
        <ele>167.8</ele>
        <time>2019-11-26T05:30:07Z</time>
      </trkpt>
      <trkpt lat="56.868579616141" lon="14.801265538217">
        <ele>167.8</ele>
        <time>2019-11-26T05:30:14Z</time>
      </trkpt>
      <trkpt lat="56.868688161746" lon="14.801507858946">
        <ele>168.2</ele>
        <time>2019-11-26T05:30:20Z</time>
      </trkpt>
      <trkpt lat="56.868809699296" lon="14.801795777211">
        <ele>167.6</ele>
        <time>2019-11-26T05:30:27Z</time>
      </trkpt>
      <trkpt lat="56.868918580177" lon="14.802075900309">
        <ele>168</ele>
        <time>2019-11-26T05:30:35Z</time>
      </trkpt>
      <trkpt lat="56.869029640352" lon="14.802340349254">
        <ele>167.8</ele>
        <time>2019-11-26T05:30:42Z</time>
      </trkpt>
      <trkpt lat="56.869124858736" lon="14.802626926415">
        <ele>168.2</ele>
        <time>2019-11-26T05:30:49Z</time>
      </trkpt>
      <trkpt lat="56.869260729335" lon="14.802842425064">
        <ele>167.6</ele>
        <time>2019-11-26T05:30:56Z</time>
      </trkpt>
      <trkpt lat="56.869380255229" lon="14.802949461927">
        <ele>167.4</ele>
        <time>2019-11-26T05:31:01Z</time>
      </trkpt>
      <trkpt lat="56.869495925449" lon="14.803243331341">
        <ele>167.2</ele>
        <time>2019-11-26T05:31:08Z</time>
      </trkpt>
      <trkpt lat="56.869607488538" lon="14.803522951525">
        <ele>167.2</ele>
        <time>2019-11-26T05:31:15Z</time>
      </trkpt>
      <trkpt lat="56.869608745823" lon="14.80388211594">
        <ele>167</ele>
        <time>2019-11-26T05:31:21Z</time>
      </trkpt>
      <trkpt lat="56.869562226278" lon="14.804232060265">
        <ele>166.8</ele>
        <time>2019-11-26T05:31:27Z</time>
      </trkpt>
      <trkpt lat="56.869530542696" lon="14.804564234962">
        <ele>167.2</ele>
        <time>2019-11-26T05:31:33Z</time>
      </trkpt>
      <trkpt lat="56.869477317631" lon="14.80491811878">
        <ele>167</ele>
        <time>2019-11-26T05:31:40Z</time>
      </trkpt>
      <trkpt lat="56.869332562218" lon="14.80506312565">
        <ele>167.4</ele>
        <time>2019-11-26T05:31:46Z</time>
      </trkpt>
      <trkpt lat="56.869152686644" lon="14.805125319348">
        <ele>167.6</ele>
        <time>2019-11-26T05:31:53Z</time>
      </trkpt>
      <trkpt lat="56.868973733079" lon="14.805215424773">
        <ele>167.2</ele>
        <time>2019-11-26T05:32:00Z</time>
      </trkpt>
      <trkpt lat="56.868771310194" lon="14.805187680684">
        <ele>167.2</ele>
        <time>2019-11-26T05:32:07Z</time>
      </trkpt>
      <trkpt lat="56.868570647508" lon="14.805224393406">
        <ele>166.8</ele>
        <time>2019-11-26T05:32:14Z</time>
      </trkpt>
      <trkpt lat="56.86837015246" lon="14.805236966256">
        <ele>167.2</ele>
        <time>2019-11-26T05:32:21Z</time>
      </trkpt>
      <trkpt lat="56.868193126732" lon="14.80512682809">
        <ele>167.4</ele>
        <time>2019-11-26T05:32:28Z</time>
      </trkpt>
      <trkpt lat="56.868040408514" lon="14.804953825674">
        <ele>166.8</ele>
        <time>2019-11-26T05:32:35Z</time>
      </trkpt>
      <trkpt lat="56.867865981175" lon="14.804804376397">
        <ele>167</ele>
        <time>2019-11-26T05:32:42Z</time>
      </trkpt>
      <trkpt lat="56.867692308207" lon="14.804651741998">
        <ele>167.2</ele>
        <time>2019-11-26T05:32:49Z</time>
      </trkpt>
      <trkpt lat="56.867519054334" lon="14.804534479217">
        <ele>167</ele>
        <time>2019-11-26T05:32:55Z</time>
      </trkpt>
      <trkpt lat="56.867458788473" lon="14.804487959672">
        <ele>166.8</ele>
        <time>2019-11-26T05:32:57Z</time>
      </trkpt>
      <trkpt lat="56.867300957296" lon="14.80433306216">
        <ele>166.6</ele>
        <time>2019-11-26T05:33:04Z</time>
      </trkpt>
      <trkpt lat="56.867119405342" lon="14.80430372551">
        <ele>167.4</ele>
        <time>2019-11-26T05:33:10Z</time>
      </trkpt>
      <trkpt lat="56.866922095416" lon="14.804262151286">
        <ele>167.2</ele>
        <time>2019-11-26T05:33:17Z</time>
      </trkpt>
      <trkpt lat="56.866718331427" lon="14.804181517408">
        <ele>167.4</ele>
        <time>2019-11-26T05:33:24Z</time>
      </trkpt>
      <trkpt lat="56.866515405628" lon="14.804065008998">
        <ele>167.4</ele>
        <time>2019-11-26T05:33:31Z</time>
      </trkpt>
      <trkpt lat="56.86634257085" lon="14.803969455338">
        <ele>167.4</ele>
        <time>2019-11-26T05:33:37Z</time>
      </trkpt>
      <trkpt lat="56.866157917593" lon="14.803914050979">
        <ele>167.6</ele>
        <time>2019-11-26T05:33:44Z</time>
      </trkpt>
      <trkpt lat="56.865962367866" lon="14.80383936825">
        <ele>168</ele>
        <time>2019-11-26T05:33:51Z</time>
      </trkpt>
      <trkpt lat="56.865775283858" lon="14.803748927549">
        <ele>167.6</ele>
        <time>2019-11-26T05:33:57Z</time>
      </trkpt>
      <trkpt lat="56.865592139343" lon="14.803631916225">
        <ele>167.2</ele>
        <time>2019-11-26T05:34:03Z</time>
      </trkpt>
      <trkpt lat="56.865389297363" lon="14.803569051975">
        <ele>167.4</ele>
        <time>2019-11-26T05:34:10Z</time>
      </trkpt>
      <trkpt lat="56.865202883907" lon="14.803494620703">
        <ele>167.4</ele>
        <time>2019-11-26T05:34:16Z</time>
      </trkpt>
      <trkpt lat="56.86500984875" lon="14.803430499168">
        <ele>167.6</ele>
        <time>2019-11-26T05:34:21Z</time>
      </trkpt>
      <trkpt lat="56.864835169954" lon="14.803318936079">
        <ele>167.6</ele>
        <time>2019-11-26T05:34:29Z</time>
      </trkpt>
      <trkpt lat="56.864648085946" lon="14.803284905565">
        <ele>167.2</ele>
        <time>2019-11-26T05:34:37Z</time>
      </trkpt>
      <trkpt lat="56.864442561758" lon="14.803297981329">
        <ele>167.8</ele>
        <time>2019-11-26T05:34:44Z</time>
      </trkpt>
      <trkpt lat="56.864258579053" lon="14.803344500874">
        <ele>167.6</ele>
        <time>2019-11-26T05:34:50Z</time>
      </trkpt>
      <trkpt lat="56.864087755931" lon="14.803473414496">
        <ele>167.6</ele>
        <time>2019-11-26T05:34:55Z</time>
      </trkpt>
      <trkpt lat="56.863923638329" lon="14.803616493529">
        <ele>167.6</ele>
        <time>2019-11-26T05:35:00Z</time>
      </trkpt>
      <trkpt lat="56.863773686138" lon="14.803857389335">
        <ele>167.8</ele>
        <time>2019-11-26T05:35:06Z</time>
      </trkpt>
      <trkpt lat="56.863642090308" lon="14.8041453076">
        <ele>168.2</ele>
        <time>2019-11-26T05:35:12Z</time>
      </trkpt>
      <trkpt lat="56.863492305755" lon="14.804388047424">
        <ele>168</ele>
        <time>2019-11-26T05:35:19Z</time>
      </trkpt>
      <trkpt lat="56.863357273346" lon="14.80463397237">
        <ele>168</ele>
        <time>2019-11-26T05:35:25Z</time>
      </trkpt>
      <trkpt lat="56.863232466855" lon="14.804897666944">
        <ele>168.2</ele>
        <time>2019-11-26T05:35:30Z</time>
      </trkpt>
      <trkpt lat="56.863104978156" lon="14.805196649317">
        <ele>167.6</ele>
        <time>2019-11-26T05:35:36Z</time>
      </trkpt>
      <trkpt lat="56.862987799194" lon="14.805491273102">
        <ele>168</ele>
        <time>2019-11-26T05:35:42Z</time>
      </trkpt>
      <trkpt lat="56.862848408197" lon="14.805725379569">
        <ele>167.8</ele>
        <time>2019-11-26T05:35:48Z</time>
      </trkpt>
      <trkpt lat="56.862707759915" lon="14.805991253437">
        <ele>167.8</ele>
        <time>2019-11-26T05:35:55Z</time>
      </trkpt>
      <trkpt lat="56.862581863777" lon="14.806246482292">
        <ele>167.6</ele>
        <time>2019-11-26T05:36:01Z</time>
      </trkpt>
      <trkpt lat="56.862463008435" lon="14.806528365589">
        <ele>167.4</ele>
        <time>2019-11-26T05:36:07Z</time>
      </trkpt>
      <trkpt lat="56.862353289364" lon="14.806802286081">
        <ele>167.4</ele>
        <time>2019-11-26T05:36:13Z</time>
      </trkpt>
      <trkpt lat="56.862224794837" lon="14.807048630122">
        <ele>167.4</ele>
        <time>2019-11-26T05:36:20Z</time>
      </trkpt>
      <trkpt lat="56.862086744944" lon="14.807284664426">
        <ele>168</ele>
        <time>2019-11-26T05:36:28Z</time>
      </trkpt>
      <trkpt lat="56.861956154942" lon="14.807547185534">
        <ele>168</ele>
        <time>2019-11-26T05:36:35Z</time>
      </trkpt>
      <trkpt lat="56.861834617392" lon="14.807816412162">
        <ele>168.2</ele>
        <time>2019-11-26T05:36:41Z</time>
      </trkpt>
      <trkpt lat="56.861815422841" lon="14.807873660539">
        <ele>168.6</ele>
        <time>2019-11-26T05:36:42Z</time>
      </trkpt>
      <trkpt lat="56.861708972711" lon="14.808174906025">
        <ele>168.6</ele>
        <time>2019-11-26T05:36:48Z</time>
      </trkpt>
      <trkpt lat="56.86160344459" lon="14.80846952981">
        <ele>168.4</ele>
        <time>2019-11-26T05:36:55Z</time>
      </trkpt>
      <trkpt lat="56.861540747978" lon="14.808778486644">
        <ele>168.2</ele>
        <time>2019-11-26T05:37:01Z</time>
      </trkpt>
      <trkpt lat="56.861459527367" lon="14.80908895222">
        <ele>167.8</ele>
        <time>2019-11-26T05:37:07Z</time>
      </trkpt>
      <trkpt lat="56.861442931205" lon="14.809139746534">
        <ele>167.6</ele>
        <time>2019-11-26T05:37:08Z</time>
      </trkpt>
      <trkpt lat="56.861362464965" lon="14.809476615095">
        <ele>167</ele>
        <time>2019-11-26T05:37:15Z</time>
      </trkpt>
      <trkpt lat="56.861290129168" lon="14.809793115639">
        <ele>166.8</ele>
        <time>2019-11-26T05:37:21Z</time>
      </trkpt>
      <trkpt lat="56.861251823885" lon="14.810148005285">
        <ele>167.4</ele>
        <time>2019-11-26T05:37:29Z</time>
      </trkpt>
      <trkpt lat="56.861240675958" lon="14.810497195239">
        <ele>167.4</ele>
        <time>2019-11-26T05:37:36Z</time>
      </trkpt>
      <trkpt lat="56.861229947126" lon="14.810861388794">
        <ele>167.2</ele>
        <time>2019-11-26T05:37:43Z</time>
      </trkpt>
      <trkpt lat="56.861217206638" lon="14.811193563491">
        <ele>167.6</ele>
        <time>2019-11-26T05:37:49Z</time>
      </trkpt>
      <trkpt lat="56.861270934617" lon="14.81153981978">
        <ele>167.8</ele>
        <time>2019-11-26T05:37:56Z</time>
      </trkpt>
      <trkpt lat="56.861347712821" lon="14.811882890947">
        <ele>167.6</ele>
        <time>2019-11-26T05:38:03Z</time>
      </trkpt>
      <trkpt lat="56.86143161564" lon="14.812180532216">
        <ele>168</ele>
        <time>2019-11-26T05:38:10Z</time>
      </trkpt>
      <trkpt lat="56.861498251745" lon="14.812319755575">
        <ele>168.6</ele>
        <time>2019-11-26T05:38:15Z</time>
      </trkpt>
      <trkpt lat="56.861655496189" lon="14.812537936432">
        <ele>169</ele>
        <time>2019-11-26T05:38:23Z</time>
      </trkpt>
      <trkpt lat="56.86179958105" lon="14.812777155858">
        <ele>169</ele>
        <time>2019-11-26T05:38:31Z</time>
      </trkpt>
      <trkpt lat="56.861967302869" lon="14.81299072667">
        <ele>169.6</ele>
        <time>2019-11-26T05:38:37Z</time>
      </trkpt>
      <trkpt lat="56.862121110734" lon="14.813128944201">
        <ele>169.6</ele>
        <time>2019-11-26T05:38:42Z</time>
      </trkpt>
      <trkpt lat="56.862310541674" lon="14.813227850621">
        <ele>169.6</ele>
        <time>2019-11-26T05:38:49Z</time>
      </trkpt>
      <trkpt lat="56.862519250984" lon="14.813275375994">
        <ele>169.2</ele>
        <time>2019-11-26T05:38:56Z</time>
      </trkpt>
      <trkpt lat="56.862697114902" lon="14.813366738704">
        <ele>169.4</ele>
        <time>2019-11-26T05:39:01Z</time>
      </trkpt>
      <trkpt lat="56.862850336034" lon="14.813581063887">
        <ele>169.2</ele>
        <time>2019-11-26T05:39:06Z</time>
      </trkpt>
      <trkpt lat="56.862960558019" lon="14.813844423185">
        <ele>169</ele>
        <time>2019-11-26T05:39:11Z</time>
      </trkpt>
      <trkpt lat="56.863026355934" lon="14.814154637304">
        <ele>168.8</ele>
        <time>2019-11-26T05:39:16Z</time>
      </trkpt>
      <trkpt lat="56.863006323193" lon="14.814526123112">
        <ele>169.2</ele>
        <time>2019-11-26T05:39:22Z</time>
      </trkpt>
      <trkpt lat="56.862906159488" lon="14.814816723585">
        <ele>169.2</ele>
        <time>2019-11-26T05:39:28Z</time>
      </trkpt>
      <trkpt lat="56.862763248093" lon="14.815068264404">
        <ele>168.8</ele>
        <time>2019-11-26T05:39:36Z</time>
      </trkpt>
      <trkpt lat="56.862708849562" lon="14.815171110317">
        <ele>168.6</ele>
        <time>2019-11-26T05:39:40Z</time>
      </trkpt>
      <trkpt lat="56.862638525421" lon="14.815309914581">
        <ele>168.6</ele>
        <time>2019-11-26T05:39:45Z</time>
      </trkpt>
      <trkpt lat="56.862486561574" lon="14.815556007165">
        <ele>169</ele>
        <time>2019-11-26T05:39:52Z</time>
      </trkpt>
      <trkpt lat="56.862329484768" lon="14.815826993992">
        <ele>169</ele>
        <time>2019-11-26T05:39:58Z</time>
      </trkpt>
      <trkpt lat="56.86218011931" lon="14.816058753527">
        <ele>169</ele>
        <time>2019-11-26T05:40:03Z</time>
      </trkpt>
      <trkpt lat="56.862017426631" lon="14.81629570984">
        <ele>169</ele>
        <time>2019-11-26T05:40:10Z</time>
      </trkpt>
      <trkpt lat="56.861883148593" lon="14.816578766603">
        <ele>169.2</ele>
        <time>2019-11-26T05:40:17Z</time>
      </trkpt>
      <trkpt lat="56.861879125281" lon="14.816904654875">
        <ele>169.2</ele>
        <time>2019-11-26T05:40:23Z</time>
      </trkpt>
      <trkpt lat="56.86194877887" lon="14.817230626966">
        <ele>168</ele>
        <time>2019-11-26T05:40:31Z</time>
      </trkpt>
      <trkpt lat="56.862038632838" lon="14.81754461294">
        <ele>168.2</ele>
        <time>2019-11-26T05:40:38Z</time>
      </trkpt>
      <trkpt lat="56.862178107654" lon="14.817718202089">
        <ele>167.8</ele>
        <time>2019-11-26T05:40:47Z</time>
      </trkpt>
      <trkpt lat="56.862340045962" lon="14.817880978587">
        <ele>167.6</ele>
        <time>2019-11-26T05:40:56Z</time>
      </trkpt>
      <trkpt lat="56.862519250984" lon="14.818026739828">
        <ele>167.4</ele>
        <time>2019-11-26T05:41:03Z</time>
      </trkpt>
      <trkpt lat="56.862714465435" lon="14.818109217724">
        <ele>167.2</ele>
        <time>2019-11-26T05:41:09Z</time>
      </trkpt>
      <trkpt lat="56.862924515849" lon="14.818162778065">
        <ele>167.6</ele>
        <time>2019-11-26T05:41:16Z</time>
      </trkpt>
      <trkpt lat="56.863116126083" lon="14.818129921017">
        <ele>167.6</ele>
        <time>2019-11-26T05:41:21Z</time>
      </trkpt>
      <trkpt lat="56.863320979719" lon="14.81805507065">
        <ele>167.4</ele>
        <time>2019-11-26T05:41:27Z</time>
      </trkpt>
      <trkpt lat="56.863506471166" lon="14.817972257478">
        <ele>167.2</ele>
        <time>2019-11-26T05:41:33Z</time>
      </trkpt>
      <trkpt lat="56.86368383217" lon="14.817872848144">
        <ele>167.4</ele>
        <time>2019-11-26T05:41:39Z</time>
      </trkpt>
      <trkpt lat="56.863879381897" lon="14.81773907302">
        <ele>167.6</ele>
        <time>2019-11-26T05:41:47Z</time>
      </trkpt>
      <trkpt lat="56.864045343517" lon="14.817574117228">
        <ele>168</ele>
        <time>2019-11-26T05:41:54Z</time>
      </trkpt>
      <trkpt lat="56.864215328449" lon="14.817416872784">
        <ele>168.2</ele>
        <time>2019-11-26T05:42:00Z</time>
      </trkpt>
      <trkpt lat="56.864394533471" lon="14.817241607255">
        <ele>167.6</ele>
        <time>2019-11-26T05:42:06Z</time>
      </trkpt>
      <trkpt lat="56.864555130675" lon="14.817084614268">
        <ele>167.6</ele>
        <time>2019-11-26T05:42:12Z</time>
      </trkpt>
      <trkpt lat="56.864640458417" lon="14.817029545185">
        <ele>168.6</ele>
        <time>2019-11-26T05:42:15Z</time>
      </trkpt>
      <trkpt lat="56.864825027855" lon="14.81687070818">
        <ele>168.8</ele>
        <time>2019-11-26T05:42:21Z</time>
      </trkpt>
      <trkpt lat="56.864992582036" lon="14.816737519789">
        <ele>169</ele>
        <time>2019-11-26T05:42:26Z</time>
      </trkpt>
      <trkpt lat="56.865147144272" lon="14.816558985319">
        <ele>169</ele>
        <time>2019-11-26T05:42:31Z</time>
      </trkpt>
      <trkpt lat="56.865327187484" lon="14.816388497473">
        <ele>168.4</ele>
        <time>2019-11-26T05:42:38Z</time>
      </trkpt>
      <trkpt lat="56.865511170189" lon="14.816261595507">
        <ele>168.4</ele>
        <time>2019-11-26T05:42:46Z</time>
      </trkpt>
      <trkpt lat="56.865691883953" lon="14.816174423747">
        <ele>167.8</ele>
        <time>2019-11-26T05:42:52Z</time>
      </trkpt>
      <trkpt lat="56.865880979617" lon="14.81604257646">
        <ele>168.6</ele>
        <time>2019-11-26T05:42:58Z</time>
      </trkpt>
      <trkpt lat="56.866050461635" lon="14.815905448576">
        <ele>168.4</ele>
        <time>2019-11-26T05:43:04Z</time>
      </trkpt>
      <trkpt lat="56.866235031073" lon="14.81576178281">
        <ele>168.2</ele>
        <time>2019-11-26T05:43:10Z</time>
      </trkpt>
      <trkpt lat="56.866403842539" lon="14.815641418726">
        <ele>168.8</ele>
        <time>2019-11-26T05:43:16Z</time>
      </trkpt>
      <trkpt lat="56.866599811361" lon="14.815518372434">
        <ele>168.8</ele>
        <time>2019-11-26T05:43:22Z</time>
      </trkpt>
      <trkpt lat="56.866793936165" lon="14.815412928132">
        <ele>167.8</ele>
        <time>2019-11-26T05:43:29Z</time>
      </trkpt>
      <trkpt lat="56.86698043344" lon="14.815382334197">
        <ele>168.6</ele>
        <time>2019-11-26T05:43:35Z</time>
      </trkpt>
      <trkpt lat="56.867174977339" lon="14.81529155822">
        <ele>168</ele>
        <time>2019-11-26T05:43:41Z</time>
      </trkpt>
      <trkpt lat="56.867375891482" lon="14.81523623768">
        <ele>168</ele>
        <time>2019-11-26T05:43:47Z</time>
      </trkpt>
      <trkpt lat="56.867572614675" lon="14.81518678447">
        <ele>168</ele>
        <time>2019-11-26T05:43:53Z</time>
      </trkpt>
      <trkpt lat="56.867780569614" lon="14.815194914913">
        <ele>167.6</ele>
        <time>2019-11-26T05:44:00Z</time>
      </trkpt>
      <trkpt lat="56.867980142653" lon="14.815281583759">
        <ele>168.2</ele>
        <time>2019-11-26T05:44:06Z</time>
      </trkpt>
      <trkpt lat="56.868184241918" lon="14.815355176841">
        <ele>168</ele>
        <time>2019-11-26T05:44:12Z</time>
      </trkpt>
      <trkpt lat="56.868369984822" lon="14.815408988639">
        <ele>168</ele>
        <time>2019-11-26T05:44:18Z</time>
      </trkpt>
      <trkpt lat="56.868558661391" lon="14.81542985957">
        <ele>167.8</ele>
        <time>2019-11-26T05:44:24Z</time>
      </trkpt>
      <trkpt lat="56.868753959661" lon="14.815506637774">
        <ele>168.4</ele>
        <time>2019-11-26T05:44:32Z</time>
      </trkpt>
      <trkpt lat="56.868954203252" lon="14.815518288615">
        <ele>169.4</ele>
        <time>2019-11-26T05:44:39Z</time>
      </trkpt>
      <trkpt lat="56.869009439973" lon="14.815493729648">
        <ele>169.6</ele>
        <time>2019-11-26T05:44:41Z</time>
      </trkpt>
      <trkpt lat="56.869214042152" lon="14.815384932586">
        <ele>168.8</ele>
        <time>2019-11-26T05:44:48Z</time>
      </trkpt>
      <trkpt lat="56.869392911898" lon="14.815265071416">
        <ele>169.4</ele>
        <time>2019-11-26T05:44:53Z</time>
      </trkpt>
      <trkpt lat="56.8695821752" lon="14.815098523063">
        <ele>169.2</ele>
        <time>2019-11-26T05:44:58Z</time>
      </trkpt>
      <trkpt lat="56.869769007751" lon="14.814963993568">
        <ele>169</ele>
        <time>2019-11-26T05:45:04Z</time>
      </trkpt>
      <trkpt lat="56.869954499198" lon="14.814840863457">
        <ele>169.6</ele>
        <time>2019-11-26T05:45:12Z</time>
      </trkpt>
      <trkpt lat="56.870150300382" lon="14.814718655355">
        <ele>169.4</ele>
        <time>2019-11-26T05:45:19Z</time>
      </trkpt>
      <trkpt lat="56.870327242291" lon="14.814592926855">
        <ele>169.2</ele>
        <time>2019-11-26T05:45:27Z</time>
      </trkpt>
      <trkpt lat="56.870531676832" lon="14.814546658767">
        <ele>169.6</ele>
        <time>2019-11-26T05:45:35Z</time>
      </trkpt>
      <trkpt lat="56.870716581546" lon="14.814586724249">
        <ele>169.6</ele>
        <time>2019-11-26T05:45:40Z</time>
      </trkpt>
      <trkpt lat="56.870923949752" lon="14.814647157748">
        <ele>169.6</ele>
        <time>2019-11-26T05:45:45Z</time>
      </trkpt>
      <trkpt lat="56.871124612438" lon="14.814737095535">
        <ele>169.6</ele>
        <time>2019-11-26T05:45:51Z</time>
      </trkpt>
      <trkpt lat="56.87128873004" lon="14.81491018177">
        <ele>169</ele>
        <time>2019-11-26T05:45:58Z</time>
      </trkpt>
      <trkpt lat="56.871470449632" lon="14.815035407356">
        <ele>169.2</ele>
        <time>2019-11-26T05:46:04Z</time>
      </trkpt>
      <trkpt lat="56.871646218075" lon="14.8151591242">
        <ele>169.4</ele>
        <time>2019-11-26T05:46:10Z</time>
      </trkpt>
      <trkpt lat="56.871828021486" lon="14.815159459476">
        <ele>169</ele>
        <time>2019-11-26T05:46:17Z</time>
      </trkpt>
      <trkpt lat="56.872006555956" lon="14.815079328512">
        <ele>169.4</ele>
        <time>2019-11-26T05:46:24Z</time>
      </trkpt>
      <trkpt lat="56.872203279149" lon="14.815017050995">
        <ele>168.8</ele>
        <time>2019-11-26T05:46:30Z</time>
      </trkpt>
      <trkpt lat="56.872401175808" lon="14.814947984139">
        <ele>168.6</ele>
        <time>2019-11-26T05:46:36Z</time>
      </trkpt>
      <trkpt lat="56.872604855978" lon="14.814911941969">
        <ele>169.2</ele>
        <time>2019-11-26T05:46:42Z</time>
      </trkpt>
      <trkpt lat="56.872784228638" lon="14.815074886105">
        <ele>168.8</ele>
        <time>2019-11-26T05:46:48Z</time>
      </trkpt>
      <trkpt lat="56.872924290187" lon="14.815280997026">
        <ele>168.4</ele>
        <time>2019-11-26T05:46:54Z</time>
      </trkpt>
      <trkpt lat="56.87312352795" lon="14.815416616168">
        <ele>168</ele>
        <time>2019-11-26T05:47:00Z</time>
      </trkpt>
      <trkpt lat="56.8733037388" lon="14.815469505957">
        <ele>168.8</ele>
        <time>2019-11-26T05:47:06Z</time>
      </trkpt>
      <trkpt lat="56.87349484612" lon="14.815517618063">
        <ele>168.2</ele>
        <time>2019-11-26T05:47:15Z</time>
      </trkpt>
      <trkpt lat="56.873690479666" lon="14.815553744052">
        <ele>168.8</ele>
        <time>2019-11-26T05:47:22Z</time>
      </trkpt>
      <trkpt lat="56.873876054932" lon="14.815607472031">
        <ele>168.6</ele>
        <time>2019-11-26T05:47:28Z</time>
      </trkpt>
      <trkpt lat="56.874088955192" lon="14.81550781124">
        <ele>169.2</ele>
        <time>2019-11-26T05:47:34Z</time>
      </trkpt>
      <trkpt lat="56.874272770259" lon="14.815329360589">
        <ele>168.8</ele>
        <time>2019-11-26T05:47:39Z</time>
      </trkpt>
      <trkpt lat="56.874461195371" lon="14.81518175533">
        <ele>168.8</ele>
        <time>2019-11-26T05:47:45Z</time>
      </trkpt>
      <trkpt lat="56.874631850855" lon="14.815077652132">
        <ele>168.6</ele>
        <time>2019-11-26T05:47:51Z</time>
      </trkpt>
      <trkpt lat="56.874808792764" lon="14.814984361585">
        <ele>168.8</ele>
        <time>2019-11-26T05:47:57Z</time>
      </trkpt>
      <trkpt lat="56.874992021098" lon="14.814853101031">
        <ele>169.2</ele>
        <time>2019-11-26T05:48:03Z</time>
      </trkpt>
      <trkpt lat="56.875137279425" lon="14.814601979307">
        <ele>168.6</ele>
        <time>2019-11-26T05:48:09Z</time>
      </trkpt>
      <trkpt lat="56.875262002097" lon="14.81431087592">
        <ele>168.4</ele>
        <time>2019-11-26T05:48:15Z</time>
      </trkpt>
      <trkpt lat="56.875373062272" lon="14.814024801673">
        <ele>168.6</ele>
        <time>2019-11-26T05:48:21Z</time>
      </trkpt>
      <trkpt lat="56.875474399443" lon="14.813708049672">
        <ele>168.4</ele>
        <time>2019-11-26T05:48:27Z</time>
      </trkpt>
      <trkpt lat="56.875546986697" lon="14.813407390919">
        <ele>168.4</ele>
        <time>2019-11-26T05:48:33Z</time>
      </trkpt>
      <trkpt lat="56.875625860376" lon="14.813054596748">
        <ele>168.4</ele>
        <time>2019-11-26T05:48:40Z</time>
      </trkpt>
      <trkpt lat="56.875672547559" lon="14.812718566377">
        <ele>168.8</ele>
        <time>2019-11-26T05:48:47Z</time>
      </trkpt>
      <trkpt lat="56.875689395178" lon="14.812338782488">
        <ele>168.4</ele>
        <time>2019-11-26T05:48:54Z</time>
      </trkpt>
      <trkpt lat="56.875698782906" lon="14.812009960551">
        <ele>168.2</ele>
        <time>2019-11-26T05:49:00Z</time>
      </trkpt>
      <trkpt lat="56.875696687431" lon="14.811628751739">
        <ele>168.4</ele>
        <time>2019-11-26T05:49:07Z</time>
      </trkpt>
      <trkpt lat="56.87570012401" lon="14.811301690001">
        <ele>168.4</ele>
        <time>2019-11-26T05:49:13Z</time>
      </trkpt>
      <trkpt lat="56.875705236969" lon="14.810922660483">
        <ele>168.8</ele>
        <time>2019-11-26T05:49:20Z</time>
      </trkpt>
      <trkpt lat="56.875723006597" lon="14.810552264322">
        <ele>168.6</ele>
        <time>2019-11-26T05:49:27Z</time>
      </trkpt>
      <trkpt lat="56.875715714344" lon="14.810196704124">
        <ele>168.8</ele>
        <time>2019-11-26T05:49:34Z</time>
      </trkpt>
      <trkpt lat="56.875549585086" lon="14.809961340372">
        <ele>168</ele>
        <time>2019-11-26T05:49:40Z</time>
      </trkpt>
      <trkpt lat="56.875353700083" lon="14.809827565248">
        <ele>168.8</ele>
        <time>2019-11-26T05:49:46Z</time>
      </trkpt>
      <trkpt lat="56.875252446731" lon="14.809760426229">
        <ele>169.8</ele>
        <time>2019-11-26T05:49:49Z</time>
      </trkpt>
      <trkpt lat="56.875069721311" lon="14.80961701192">
        <ele>170</ele>
        <time>2019-11-26T05:49:55Z</time>
      </trkpt>
      <trkpt lat="56.874878278715" lon="14.809525900667">
        <ele>170</ele>
        <time>2019-11-26T05:50:03Z</time>
      </trkpt>
      <trkpt lat="56.8746951342" lon="14.809473094697">
        <ele>169.8</ele>
        <time>2019-11-26T05:50:09Z</time>
      </trkpt>
      <trkpt lat="56.874514252798" lon="14.809401932366">
        <ele>170</ele>
        <time>2019-11-26T05:50:15Z</time>
      </trkpt>
      <trkpt lat="56.874340496011" lon="14.809317442814">
        <ele>169.8</ele>
        <time>2019-11-26T05:50:21Z</time>
      </trkpt>
      <trkpt lat="56.874150729795" lon="14.809316688443">
        <ele>169.8</ele>
        <time>2019-11-26T05:50:27Z</time>
      </trkpt>
      <trkpt lat="56.873946043797" lon="14.809252147813">
        <ele>169.8</ele>
        <time>2019-11-26T05:50:34Z</time>
      </trkpt>
      <trkpt lat="56.873761977273" lon="14.809188864468">
        <ele>169.4</ele>
        <time>2019-11-26T05:50:40Z</time>
      </trkpt>
      <trkpt lat="56.873732137709" lon="14.809155336868">
        <ele>169.4</ele>
        <time>2019-11-26T05:50:41Z</time>
      </trkpt>
      <trkpt lat="56.873546646262" lon="14.809103788183">
        <ele>169.2</ele>
        <time>2019-11-26T05:50:47Z</time>
      </trkpt>
      <trkpt lat="56.873366351593" lon="14.80905374824">
        <ele>169.6</ele>
        <time>2019-11-26T05:50:53Z</time>
      </trkpt>
      <trkpt lat="56.873164934536" lon="14.809004714125">
        <ele>169.4</ele>
        <time>2019-11-26T05:51:00Z</time>
      </trkpt>
      <trkpt lat="56.873003247685" lon="14.809018125165">
        <ele>168.8</ele>
        <time>2019-11-26T05:51:05Z</time>
      </trkpt>
      <trkpt lat="56.872803590827" lon="14.808985938669">
        <ele>169</ele>
        <time>2019-11-26T05:51:11Z</time>
      </trkpt>
      <trkpt lat="56.872605023616" lon="14.808909663379">
        <ele>168</ele>
        <time>2019-11-26T05:51:17Z</time>
      </trkpt>
      <trkpt lat="56.872412323735" lon="14.808864820214">
        <ele>168.6</ele>
        <time>2019-11-26T05:51:23Z</time>
      </trkpt>
      <trkpt lat="56.87222582646" lon="14.808854007563">
        <ele>168.4</ele>
        <time>2019-11-26T05:51:29Z</time>
      </trkpt>
      <trkpt lat="56.87203388095" lon="14.808815618461">
        <ele>168.2</ele>
        <time>2019-11-26T05:51:35Z</time>
      </trkpt>
      <trkpt lat="56.871845036743" lon="14.808743115026">
        <ele>168.6</ele>
        <time>2019-11-26T05:51:41Z</time>
      </trkpt>
      <trkpt lat="56.871676392915" lon="14.808569944972">
        <ele>168.2</ele>
        <time>2019-11-26T05:51:47Z</time>
      </trkpt>
      <trkpt lat="56.871527698009" lon="14.808376155444">
        <ele>169</ele>
        <time>2019-11-26T05:51:53Z</time>
      </trkpt>
      <trkpt lat="56.871378584008" lon="14.808189071436">
        <ele>168.2</ele>
        <time>2019-11-26T05:51:59Z</time>
      </trkpt>
      <trkpt lat="56.871207341791" lon="14.807974075701">
        <ele>168.4</ele>
        <time>2019-11-26T05:52:06Z</time>
      </trkpt>
      <trkpt lat="56.871031238072" lon="14.807853963074">
        <ele>168.6</ele>
        <time>2019-11-26T05:52:12Z</time>
      </trkpt>
      <trkpt lat="56.870826719712" lon="14.80777886125">
        <ele>168.2</ele>
        <time>2019-11-26T05:52:18Z</time>
      </trkpt>
      <trkpt lat="56.870639719523" lon="14.807686073617">
        <ele>168.6</ele>
        <time>2019-11-26T05:52:24Z</time>
      </trkpt>
      <trkpt lat="56.870453222248" lon="14.80761122325">
        <ele>168.2</ele>
        <time>2019-11-26T05:52:30Z</time>
      </trkpt>
      <trkpt lat="56.870279716918" lon="14.807454062625">
        <ele>168.8</ele>
        <time>2019-11-26T05:52:36Z</time>
      </trkpt>
      <trkpt lat="56.870138230446" lon="14.807238061062">
        <ele>169</ele>
        <time>2019-11-26T05:52:42Z</time>
      </trkpt>
      <trkpt lat="56.869999090906" lon="14.80701107921">
        <ele>168</ele>
        <time>2019-11-26T05:52:48Z</time>
      </trkpt>
      <trkpt lat="56.869841008272" lon="14.806786611928">
        <ele>169</ele>
        <time>2019-11-26T05:52:55Z</time>
      </trkpt>
      <trkpt lat="56.869713519573" lon="14.806525348105">
        <ele>169.2</ele>
        <time>2019-11-26T05:53:01Z</time>
      </trkpt>
      <trkpt lat="56.86962157013" lon="14.806240112048">
        <ele>169.2</ele>
        <time>2019-11-26T05:53:07Z</time>
      </trkpt>
      <trkpt lat="56.869545211021" lon="14.805892011741">
        <ele>169.6</ele>
        <time>2019-11-26T05:53:14Z</time>
      </trkpt>
      <trkpt lat="56.86940364073" lon="14.805626137873">
        <ele>169</ele>
        <time>2019-11-26T05:53:21Z</time>
      </trkpt>
      <trkpt lat="56.869245893372" lon="14.805462271728">
        <ele>168.8</ele>
        <time>2019-11-26T05:53:26Z</time>
      </trkpt>
      <trkpt lat="56.868945318438" lon="14.805338135789">
        <ele>168.6</ele>
        <time>2019-11-26T05:53:36Z</time>
      </trkpt>
      <trkpt lat="56.868759575534" lon="14.80534811025">
        <ele>168.2</ele>
        <time>2019-11-26T05:53:42Z</time>
      </trkpt>
      <trkpt lat="56.868566121282" lon="14.805303518542">
        <ele>169.6</ele>
        <time>2019-11-26T05:53:48Z</time>
      </trkpt>
      <trkpt lat="56.868378366722" lon="14.805239732283">
        <ele>168.8</ele>
        <time>2019-11-26T05:53:55Z</time>
      </trkpt>
      <trkpt lat="56.868195222207" lon="14.805173515273">
        <ele>169</ele>
        <time>2019-11-26T05:54:01Z</time>
      </trkpt>
      <trkpt lat="56.868016687737" lon="14.805107465901">
        <ele>169.4</ele>
        <time>2019-11-26T05:54:07Z</time>
      </trkpt>
      <trkpt lat="56.867838991457" lon="14.804989448749">
        <ele>169.2</ele>
        <time>2019-11-26T05:54:13Z</time>
      </trkpt>
      <trkpt lat="56.867646878309" lon="14.804870761045">
        <ele>169.4</ele>
        <time>2019-11-26T05:54:19Z</time>
      </trkpt>
      <trkpt lat="56.867460297215" lon="14.804788366968">
        <ele>168.8</ele>
        <time>2019-11-26T05:54:25Z</time>
      </trkpt>
      <trkpt lat="56.867284109677" lon="14.804681665381">
        <ele>168.6</ele>
        <time>2019-11-26T05:54:31Z</time>
      </trkpt>
      <trkpt lat="56.867095433108" lon="14.804625255194">
        <ele>168.8</ele>
        <time>2019-11-26T05:54:37Z</time>
      </trkpt>
      <trkpt lat="56.866909941661" lon="14.804565324609">
        <ele>168.6</ele>
        <time>2019-11-26T05:54:43Z</time>
      </trkpt>
      <trkpt lat="56.866723444386" lon="14.804493827002">
        <ele>169.2</ele>
        <time>2019-11-26T05:54:49Z</time>
      </trkpt>
      <trkpt lat="56.866546921572" lon="14.80442274849">
        <ele>168.8</ele>
        <time>2019-11-26T05:54:55Z</time>
      </trkpt>
      <trkpt lat="56.866363693238" lon="14.804310347211">
        <ele>169.2</ele>
        <time>2019-11-26T05:55:01Z</time>
      </trkpt>
      <trkpt lat="56.866190523184" lon="14.804221918166">
        <ele>169</ele>
        <time>2019-11-26T05:55:07Z</time>
      </trkpt>
      <trkpt lat="56.86599304562" lon="14.804145810514">
        <ele>169.2</ele>
        <time>2019-11-26T05:55:14Z</time>
      </trkpt>
      <trkpt lat="56.865808224725" lon="14.804027793362">
        <ele>169.2</ele>
        <time>2019-11-26T05:55:21Z</time>
      </trkpt>
      <trkpt lat="56.865639077983" lon="14.803879852827">
        <ele>169.2</ele>
        <time>2019-11-26T05:55:27Z</time>
      </trkpt>
      <trkpt lat="56.865575794638" lon="14.80384020644">
        <ele>169.2</ele>
        <time>2019-11-26T05:55:29Z</time>
      </trkpt>
      <trkpt lat="56.865399355643" lon="14.80372705079">
        <ele>169</ele>
        <time>2019-11-26T05:55:35Z</time>
      </trkpt>
      <trkpt lat="56.865198106224" lon="14.803647506559">
        <ele>168.8</ele>
        <time>2019-11-26T05:55:42Z</time>
      </trkpt>
      <trkpt lat="56.865013452967" lon="14.803621019755">
        <ele>169.2</ele>
        <time>2019-11-26T05:55:47Z</time>
      </trkpt>
      <trkpt lat="56.864818238516" lon="14.803592269838">
        <ele>169.2</ele>
        <time>2019-11-26T05:55:53Z</time>
      </trkpt>
      <trkpt lat="56.864620341857" lon="14.803579361712">
        <ele>168.8</ele>
        <time>2019-11-26T05:56:00Z</time>
      </trkpt>
      <trkpt lat="56.864417583696" lon="14.803629150198">
        <ele>169</ele>
        <time>2019-11-26T05:56:07Z</time>
      </trkpt>
      <trkpt lat="56.864217926838" lon="14.803671143517">
        <ele>169</ele>
        <time>2019-11-26T05:56:14Z</time>
      </trkpt>
      <trkpt lat="56.864030926649" lon="14.803739707459">
        <ele>168.8</ele>
        <time>2019-11-26T05:56:20Z</time>
      </trkpt>
      <trkpt lat="56.86383889732" lon="14.803882535035">
        <ele>169.6</ele>
        <time>2019-11-26T05:56:27Z</time>
      </trkpt>
      <trkpt lat="56.863794557069" lon="14.803932994073">
        <ele>170</ele>
        <time>2019-11-26T05:56:29Z</time>
      </trkpt>
      <trkpt lat="56.86364946638" lon="14.804149666188">
        <ele>169.6</ele>
        <time>2019-11-26T05:56:36Z</time>
      </trkpt>
      <trkpt lat="56.863522648233" lon="14.804409924183">
        <ele>169.8</ele>
        <time>2019-11-26T05:56:43Z</time>
      </trkpt>
      <trkpt lat="56.86348434295" lon="14.80452165491">
        <ele>169.6</ele>
        <time>2019-11-26T05:56:46Z</time>
      </trkpt>
      <trkpt lat="56.863349142903" lon="14.804737572654">
        <ele>169.6</ele>
        <time>2019-11-26T05:56:52Z</time>
      </trkpt>
      <trkpt lat="56.86320271111" lon="14.805013085707">
        <ele>169</ele>
        <time>2019-11-26T05:56:59Z</time>
      </trkpt>
      <trkpt lat="56.86307530623" lon="14.805242079215">
        <ele>169.4</ele>
        <time>2019-11-26T05:57:05Z</time>
      </trkpt>
      <trkpt lat="56.862936753423" lon="14.805527315272">
        <ele>169</ele>
        <time>2019-11-26T05:57:11Z</time>
      </trkpt>
      <trkpt lat="56.862800799005" lon="14.805777598806">
        <ele>168.8</ele>
        <time>2019-11-26T05:57:17Z</time>
      </trkpt>
      <trkpt lat="56.862650511538" lon="14.806044059407">
        <ele>168.8</ele>
        <time>2019-11-26T05:57:23Z</time>
      </trkpt>
      <trkpt lat="56.862520843545" lon="14.80634220359">
        <ele>168.4</ele>
        <time>2019-11-26T05:57:29Z</time>
      </trkpt>
      <trkpt lat="56.862421685668" lon="14.806668594776">
        <ele>169</ele>
        <time>2019-11-26T05:57:35Z</time>
      </trkpt>
      <trkpt lat="56.862290089838" lon="14.806931367341">
        <ele>168.4</ele>
        <time>2019-11-26T05:57:42Z</time>
      </trkpt>
      <trkpt lat="56.862166121537" lon="14.807150051112">
        <ele>170</ele>
        <time>2019-11-26T05:57:48Z</time>
      </trkpt>
      <trkpt lat="56.862034525707" lon="14.807429755115">
        <ele>169.4</ele>
        <time>2019-11-26T05:57:55Z</time>
      </trkpt>
      <trkpt lat="56.861913323433" lon="14.807676769708">
        <ele>170.2</ele>
        <time>2019-11-26T05:58:01Z</time>
      </trkpt>
      <trkpt lat="56.86179790467" lon="14.807931663287">
        <ele>169.2</ele>
        <time>2019-11-26T05:58:07Z</time>
      </trkpt>
      <trkpt lat="56.861692041273" lon="14.808208349806">
        <ele>170</ele>
        <time>2019-11-26T05:58:13Z</time>
      </trkpt>
      <trkpt lat="56.861604031323" lon="14.808508002731">
        <ele>169.8</ele>
        <time>2019-11-26T05:58:18Z</time>
      </trkpt>
      <trkpt lat="56.861529097137" lon="14.808849984251">
        <ele>169.4</ele>
        <time>2019-11-26T05:58:23Z</time>
      </trkpt>
      <trkpt lat="56.861498084107" lon="14.808962050254">
        <ele>168.8</ele>
        <time>2019-11-26T05:58:25Z</time>
      </trkpt>
      <trkpt lat="56.861427257052" lon="14.809300679014">
        <ele>169.2</ele>
        <time>2019-11-26T05:58:32Z</time>
      </trkpt>
      <trkpt lat="56.861347209907" lon="14.80963629029">
        <ele>168.2</ele>
        <time>2019-11-26T05:58:38Z</time>
      </trkpt>
      <trkpt lat="56.861285686761" lon="14.809971147195">
        <ele>168.8</ele>
        <time>2019-11-26T05:58:44Z</time>
      </trkpt>
      <trkpt lat="56.861244028718" lon="14.810315559466">
        <ele>167.4</ele>
        <time>2019-11-26T05:58:50Z</time>
      </trkpt>
      <trkpt lat="56.861243441985" lon="14.810428715116">
        <ele>168.6</ele>
        <time>2019-11-26T05:58:52Z</time>
      </trkpt>
      <trkpt lat="56.861250315143" lon="14.810571626511">
        <ele>170.4</ele>
        <time>2019-11-26T05:58:55Z</time>
      </trkpt>
      <trkpt lat="56.861261630708" lon="14.810664497963">
        <ele>169.2</ele>
        <time>2019-11-26T05:58:57Z</time>
      </trkpt>
      <trkpt lat="56.861259032319" lon="14.810712358612">
        <ele>169</ele>
        <time>2019-11-26T05:58:58Z</time>
      </trkpt>
      <trkpt lat="56.861245453641" lon="14.810803721322">
        <ele>168.4</ele>
        <time>2019-11-26T05:59:00Z</time>
      </trkpt>
      <trkpt lat="56.861249560772" lon="14.810929952736">
        <ele>168.2</ele>
        <time>2019-11-26T05:59:02Z</time>
      </trkpt>
      <trkpt lat="56.861254589912" lon="14.811232623145">
        <ele>169.2</ele>
        <time>2019-11-26T05:59:08Z</time>
      </trkpt>
      <trkpt lat="56.861296499412" lon="14.811590697913">
        <ele>168.6</ele>
        <time>2019-11-26T05:59:16Z</time>
      </trkpt>
      <trkpt lat="56.861386101923" lon="14.811945252283">
        <ele>169.4</ele>
        <time>2019-11-26T05:59:22Z</time>
      </trkpt>
      <trkpt lat="56.861468496" lon="14.812258902981">
        <ele>168.6</ele>
        <time>2019-11-26T05:59:28Z</time>
      </trkpt>
      <trkpt lat="56.861540915616" lon="14.812463086065">
        <ele>169.6</ele>
        <time>2019-11-26T05:59:32Z</time>
      </trkpt>
      <trkpt lat="56.861583998582" lon="14.812545396323">
        <ele>170.4</ele>
        <time>2019-11-26T05:59:34Z</time>
      </trkpt>
      <trkpt lat="56.86171240929" lon="14.812778413143">
        <ele>170</ele>
        <time>2019-11-26T05:59:40Z</time>
      </trkpt>
      <trkpt lat="56.861840987636" lon="14.813029031953">
        <ele>170.8</ele>
        <time>2019-11-26T05:59:47Z</time>
      </trkpt>
      <trkpt lat="56.862000411374" lon="14.813293061803">
        <ele>169.8</ele>
        <time>2019-11-26T05:59:54Z</time>
      </trkpt>
      <trkpt lat="56.862180035491" lon="14.813468578789">
        <ele>171.2</ele>
        <time>2019-11-26T06:00:00Z</time>
      </trkpt>
      <trkpt lat="56.862365191662" lon="14.813560109137">
        <ele>170</ele>
        <time>2019-11-26T06:00:08Z</time>
      </trkpt>
      <trkpt lat="56.862516820233" lon="14.813597995325">
        <ele>169.4</ele>
        <time>2019-11-26T06:00:13Z</time>
      </trkpt>
      <trkpt lat="56.862690828477" lon="14.813813326336">
        <ele>169.6</ele>
        <time>2019-11-26T06:00:20Z</time>
      </trkpt>
      <trkpt lat="56.862841786496" lon="14.814026897148">
        <ele>169.4</ele>
        <time>2019-11-26T06:00:25Z</time>
      </trkpt>
      <trkpt lat="56.862965419521" lon="14.814291178455">
        <ele>170.2</ele>
        <time>2019-11-26T06:00:30Z</time>
      </trkpt>
      <trkpt lat="56.862996013456" lon="14.814616396175">
        <ele>169.6</ele>
        <time>2019-11-26T06:00:36Z</time>
      </trkpt>
      <trkpt lat="56.862877912485" lon="14.814919737136">
        <ele>170</ele>
        <time>2019-11-26T06:00:44Z</time>
      </trkpt>
      <trkpt lat="56.862746232836" lon="14.815181587692">
        <ele>169.8</ele>
        <time>2019-11-26T06:00:52Z</time>
      </trkpt>
      <trkpt lat="56.862608602038" lon="14.815408988639">
        <ele>169.8</ele>
        <time>2019-11-26T06:01:00Z</time>
      </trkpt>
      <trkpt lat="56.862447921015" lon="14.815636305767">
        <ele>170</ele>
        <time>2019-11-26T06:01:08Z</time>
      </trkpt>
      <trkpt lat="56.862363766739" lon="14.815727500839">
        <ele>170.4</ele>
        <time>2019-11-26T06:01:11Z</time>
      </trkpt>
      <trkpt lat="56.862216329118" lon="14.815923888756">
        <ele>170</ele>
        <time>2019-11-26T06:01:16Z</time>
      </trkpt>
      <trkpt lat="56.862065119642" lon="14.816160425974">
        <ele>169.8</ele>
        <time>2019-11-26T06:01:22Z</time>
      </trkpt>
      <trkpt lat="56.861952215449" lon="14.816433340638">
        <ele>170</ele>
        <time>2019-11-26T06:01:28Z</time>
      </trkpt>
      <trkpt lat="56.861903935705" lon="14.816582035544">
        <ele>170</ele>
        <time>2019-11-26T06:01:31Z</time>
      </trkpt>
      <trkpt lat="56.861918687849" lon="14.81694027795">
        <ele>169.8</ele>
        <time>2019-11-26T06:01:38Z</time>
      </trkpt>
      <trkpt lat="56.861959926797" lon="14.817180419385">
        <ele>169.2</ele>
        <time>2019-11-26T06:01:43Z</time>
      </trkpt>
      <trkpt lat="56.862028742196" lon="14.817512342625">
        <ele>169.4</ele>
        <time>2019-11-26T06:01:50Z</time>
      </trkpt>
      <trkpt lat="56.862067215117" lon="14.817698420805">
        <ele>169</ele>
        <time>2019-11-26T06:01:54Z</time>
      </trkpt>
      <trkpt lat="56.862212054349" lon="14.817939987163">
        <ele>169.2</ele>
        <time>2019-11-26T06:02:01Z</time>
      </trkpt>
      <trkpt lat="56.862372483915" lon="14.818139560202">
        <ele>169</ele>
        <time>2019-11-26T06:02:08Z</time>
      </trkpt>
      <trkpt lat="56.862522603744" lon="14.818306024736">
        <ele>168.2</ele>
        <time>2019-11-26T06:02:14Z</time>
      </trkpt>
      <trkpt lat="56.862698456006" lon="14.818378109076">
        <ele>168.6</ele>
        <time>2019-11-26T06:02:20Z</time>
      </trkpt>
      <trkpt lat="56.86288084615" lon="14.818363692208">
        <ele>168.6</ele>
        <time>2019-11-26T06:02:25Z</time>
      </trkpt>
      <trkpt lat="56.862925521677" lon="14.818304432175">
        <ele>168.4</ele>
        <time>2019-11-26T06:02:26Z</time>
      </trkpt>
      <trkpt lat="56.863132051693" lon="14.818248189626">
        <ele>168.8</ele>
        <time>2019-11-26T06:02:32Z</time>
      </trkpt>
      <trkpt lat="56.863333133474" lon="14.818186247385">
        <ele>168</ele>
        <time>2019-11-26T06:02:38Z</time>
      </trkpt>
      <trkpt lat="56.863510745935" lon="14.818119862737">
        <ele>168.6</ele>
        <time>2019-11-26T06:02:43Z</time>
      </trkpt>
      <trkpt lat="56.863691794975" lon="14.818022297421">
        <ele>168.4</ele>
        <time>2019-11-26T06:02:49Z</time>
      </trkpt>
      <trkpt lat="56.863873346929" lon="14.817831190101">
        <ele>168.6</ele>
        <time>2019-11-26T06:02:55Z</time>
      </trkpt>
      <trkpt lat="56.864048696277" lon="14.817684087756">
        <ele>168.6</ele>
        <time>2019-11-26T06:03:01Z</time>
      </trkpt>
      <trkpt lat="56.864202001228" lon="14.817573446676">
        <ele>169.2</ele>
        <time>2019-11-26T06:03:07Z</time>
      </trkpt>
      <trkpt lat="56.864368801038" lon="14.817411759825">
        <ele>169</ele>
        <time>2019-11-26T06:03:13Z</time>
      </trkpt>
      <trkpt lat="56.864531912812" lon="14.817242277807">
        <ele>168.8</ele>
        <time>2019-11-26T06:03:19Z</time>
      </trkpt>
      <trkpt lat="56.864701311011" lon="14.817102216258">
        <ele>169.8</ele>
        <time>2019-11-26T06:03:25Z</time>
      </trkpt>
      <trkpt lat="56.864883114422" lon="14.816987887142">
        <ele>169.4</ele>
        <time>2019-11-26T06:03:31Z</time>
      </trkpt>
      <trkpt lat="56.865051842069" lon="14.816811951061">
        <ele>170.2</ele>
        <time>2019-11-26T06:03:37Z</time>
      </trkpt>
      <trkpt lat="56.865210679074" lon="14.816638864826">
        <ele>169.6</ele>
        <time>2019-11-26T06:03:43Z</time>
      </trkpt>
      <trkpt lat="56.865393572132" lon="14.816509951204">
        <ele>169.8</ele>
        <time>2019-11-26T06:03:50Z</time>
      </trkpt>
      <trkpt lat="56.865583422167" lon="14.816392772242">
        <ele>169.2</ele>
        <time>2019-11-26T06:03:57Z</time>
      </trkpt>
      <trkpt lat="56.865758184782" lon="14.816304510835">
        <ele>168.6</ele>
        <time>2019-11-26T06:04:02Z</time>
      </trkpt>
      <trkpt lat="56.865923392031" lon="14.816157073214">
        <ele>168.8</ele>
        <time>2019-11-26T06:04:07Z</time>
      </trkpt>
      <trkpt lat="56.8661036867" lon="14.815989854309">
        <ele>168.8</ele>
        <time>2019-11-26T06:04:14Z</time>
      </trkpt>
      <trkpt lat="56.866290770708" lon="14.815861611239">
        <ele>168.8</ele>
        <time>2019-11-26T06:04:20Z</time>
      </trkpt>
      <trkpt lat="56.86647416668" lon="14.815731775608">
        <ele>168.6</ele>
        <time>2019-11-26T06:04:26Z</time>
      </trkpt>
      <trkpt lat="56.866657059738" lon="14.815649968264">
        <ele>169</ele>
        <time>2019-11-26T06:04:32Z</time>
      </trkpt>
      <trkpt lat="56.866848083239" lon="14.815539997736">
        <ele>168</ele>
        <time>2019-11-26T06:04:38Z</time>
      </trkpt>
      <trkpt lat="56.86703910674" lon="14.815449640854">
        <ele>168.8</ele>
        <time>2019-11-26T06:04:45Z</time>
      </trkpt>
      <trkpt lat="56.867227028938" lon="14.815328773856">
        <ele>168.4</ele>
        <time>2019-11-26T06:04:51Z</time>
      </trkpt>
      <trkpt lat="56.867429787099" lon="14.815232130549">
        <ele>168.8</ele>
        <time>2019-11-26T06:04:57Z</time>
      </trkpt>
      <trkpt lat="56.867627264663" lon="14.815154514155">
        <ele>168.8</ele>
        <time>2019-11-26T06:05:04Z</time>
      </trkpt>
      <trkpt lat="56.867812085558" lon="14.815124171677">
        <ele>168.4</ele>
        <time>2019-11-26T06:05:10Z</time>
      </trkpt>
      <trkpt lat="56.867942424103" lon="14.815171529412">
        <ele>169.2</ele>
        <time>2019-11-26T06:05:15Z</time>
      </trkpt>
      <trkpt lat="56.868147529196" lon="14.815271609298">
        <ele>168.4</ele>
        <time>2019-11-26T06:05:22Z</time>
      </trkpt>
      <trkpt lat="56.868329164969" lon="14.815324834363">
        <ele>168.8</ele>
        <time>2019-11-26T06:05:28Z</time>
      </trkpt>
      <trkpt lat="56.86852437942" lon="14.815359283972">
        <ele>168.6</ele>
        <time>2019-11-26T06:05:35Z</time>
      </trkpt>
      <trkpt lat="56.868721270251" lon="14.815432122683">
        <ele>168.8</ele>
        <time>2019-11-26T06:05:43Z</time>
      </trkpt>
      <trkpt lat="56.868900894368" lon="14.815491717992">
        <ele>169.8</ele>
        <time>2019-11-26T06:05:49Z</time>
      </trkpt>
      <trkpt lat="56.869105831823" lon="14.815433296149">
        <ele>169.6</ele>
        <time>2019-11-26T06:05:55Z</time>
      </trkpt>
      <trkpt lat="56.869300040446" lon="14.815343190724">
        <ele>169.6</ele>
        <time>2019-11-26T06:06:01Z</time>
      </trkpt>
      <trkpt lat="56.8694983562" lon="14.815200363148">
        <ele>169.6</ele>
        <time>2019-11-26T06:06:07Z</time>
      </trkpt>
      <trkpt lat="56.869674208462" lon="14.815058792857">
        <ele>169.4</ele>
        <time>2019-11-26T06:06:13Z</time>
      </trkpt>
      <trkpt lat="56.869843606661" lon="14.814909846494">
        <ele>169.2</ele>
        <time>2019-11-26T06:06:19Z</time>
      </trkpt>
      <trkpt lat="56.870016860534" lon="14.814744471607">
        <ele>169.6</ele>
        <time>2019-11-26T06:06:26Z</time>
      </trkpt>
      <trkpt lat="56.870186929285" lon="14.814637099468">
        <ele>169.2</ele>
        <time>2019-11-26T06:06:32Z</time>
      </trkpt>
      <trkpt lat="56.870373342741" lon="14.814533331546">
        <ele>169.8</ele>
        <time>2019-11-26T06:06:38Z</time>
      </trkpt>
      <trkpt lat="56.87056118112" lon="14.814495780634">
        <ele>169.4</ele>
        <time>2019-11-26T06:06:45Z</time>
      </trkpt>
      <trkpt lat="56.870676096969" lon="14.814535007926">
        <ele>170.2</ele>
        <time>2019-11-26T06:06:49Z</time>
      </trkpt>
      <trkpt lat="56.870875083275" lon="14.814639027305">
        <ele>170</ele>
        <time>2019-11-26T06:06:56Z</time>
      </trkpt>
      <trkpt lat="56.871064262758" lon="14.814733742775">
        <ele>170.4</ele>
        <time>2019-11-26T06:07:02Z</time>
      </trkpt>
      <trkpt lat="56.871237935726" lon="14.814857711076">
        <ele>169.2</ele>
        <time>2019-11-26T06:07:09Z</time>
      </trkpt>
      <trkpt lat="56.871397862378" lon="14.815043621618">
        <ele>170.2</ele>
        <time>2019-11-26T06:07:16Z</time>
      </trkpt>
      <trkpt lat="56.871554100994" lon="14.815210505247">
        <ele>169.4</ele>
        <time>2019-11-26T06:07:23Z</time>
      </trkpt>
      <trkpt lat="56.871763480856" lon="14.815193741447">
        <ele>169.8</ele>
        <time>2019-11-26T06:07:29Z</time>
      </trkpt>
      <trkpt lat="56.871938830204" lon="14.815135487242">
        <ele>169</ele>
        <time>2019-11-26T06:07:34Z</time>
      </trkpt>
      <trkpt lat="56.872151143731" lon="14.815069270232">
        <ele>169.6</ele>
        <time>2019-11-26T06:07:40Z</time>
      </trkpt>
      <trkpt lat="56.872345519992" lon="14.815041023229">
        <ele>168.4</ele>
        <time>2019-11-26T06:07:45Z</time>
      </trkpt>
      <trkpt lat="56.872551966189" lon="14.815007076534">
        <ele>168.8</ele>
        <time>2019-11-26T06:07:51Z</time>
      </trkpt>
      <trkpt lat="56.872731506487" lon="14.815021325764">
        <ele>169.8</ele>
        <time>2019-11-26T06:07:57Z</time>
      </trkpt>
      <trkpt lat="56.87285027801" lon="14.815248475254">
        <ele>169</ele>
        <time>2019-11-26T06:08:04Z</time>
      </trkpt>
      <trkpt lat="56.872986148609" lon="14.81546171079">
        <ele>168.4</ele>
        <time>2019-11-26T06:08:10Z</time>
      </trkpt>
      <trkpt lat="56.873047001203" lon="14.815492053268">
        <ele>168</ele>
        <time>2019-11-26T06:08:12Z</time>
      </trkpt>
      <trkpt lat="56.873224613664" lon="14.815536980252">
        <ele>168.4</ele>
        <time>2019-11-26T06:08:17Z</time>
      </trkpt>
      <trkpt lat="56.873342044083" lon="14.815534800958">
        <ele>169</ele>
        <time>2019-11-26T06:08:21Z</time>
      </trkpt>
      <trkpt lat="56.873549496108" lon="14.815542763763">
        <ele>168.4</ele>
        <time>2019-11-26T06:08:28Z</time>
      </trkpt>
      <trkpt lat="56.873756193762" lon="14.815580649951">
        <ele>169</ele>
        <time>2019-11-26T06:08:35Z</time>
      </trkpt>
      <trkpt lat="56.873943529227" lon="14.815622894727">
        <ele>169.2</ele>
        <time>2019-11-26T06:08:41Z</time>
      </trkpt>
      <trkpt lat="56.873977895017" lon="14.815616943578">
        <ele>169</ele>
        <time>2019-11-26T06:08:42Z</time>
      </trkpt>
      <trkpt lat="56.87417042726" lon="14.815459363858">
        <ele>169.2</ele>
        <time>2019-11-26T06:08:47Z</time>
      </trkpt>
      <trkpt lat="56.874334041948" lon="14.815305891269">
        <ele>169</ele>
        <time>2019-11-26T06:08:52Z</time>
      </trkpt>
      <trkpt lat="56.874513079332" lon="14.815163734245">
        <ele>169.2</ele>
        <time>2019-11-26T06:08:58Z</time>
      </trkpt>
      <trkpt lat="56.87470183972" lon="14.815037754288">
        <ele>169</ele>
        <time>2019-11-26T06:09:04Z</time>
      </trkpt>
      <trkpt lat="56.874882637303" lon="14.814954689659">
        <ele>168.6</ele>
        <time>2019-11-26T06:09:10Z</time>
      </trkpt>
      <trkpt lat="56.875068715483" lon="14.814813370825">
        <ele>169</ele>
        <time>2019-11-26T06:09:16Z</time>
      </trkpt>
      <trkpt lat="56.875200730408" lon="14.814540372342">
        <ele>168.8</ele>
        <time>2019-11-26T06:09:22Z</time>
      </trkpt>
      <trkpt lat="56.875316065352" lon="14.814266368031">
        <ele>168.4</ele>
        <time>2019-11-26T06:09:28Z</time>
      </trkpt>
      <trkpt lat="56.875425365328" lon="14.813986747847">
        <ele>169</ele>
        <time>2019-11-26T06:09:34Z</time>
      </trkpt>
      <trkpt lat="56.875510525432" lon="14.813697404659">
        <ele>168.8</ele>
        <time>2019-11-26T06:09:40Z</time>
      </trkpt>
      <trkpt lat="56.875566935619" lon="14.813385933255">
        <ele>169</ele>
        <time>2019-11-26T06:09:46Z</time>
      </trkpt>
      <trkpt lat="56.875613874259" lon="14.81306784015">
        <ele>169.2</ele>
        <time>2019-11-26T06:09:52Z</time>
      </trkpt>
      <trkpt lat="56.875641534529" lon="14.812739521127">
        <ele>168.6</ele>
        <time>2019-11-26T06:09:58Z</time>
      </trkpt>
      <trkpt lat="56.87565150899" lon="14.812362251808">
        <ele>168.8</ele>
        <time>2019-11-26T06:10:05Z</time>
      </trkpt>
      <trkpt lat="56.875660980537" lon="14.812024377419">
        <ele>169.2</ele>
        <time>2019-11-26T06:10:11Z</time>
      </trkpt>
      <trkpt lat="56.87565989089" lon="14.811672756714">
        <ele>169</ele>
        <time>2019-11-26T06:10:17Z</time>
      </trkpt>
      <trkpt lat="56.875623932539" lon="14.811313676118">
        <ele>168.6</ele>
        <time>2019-11-26T06:10:23Z</time>
      </trkpt>
      <trkpt lat="56.875609515671" lon="14.810974292987">
        <ele>169</ele>
        <time>2019-11-26T06:10:29Z</time>
      </trkpt>
      <trkpt lat="56.875606665825" lon="14.810626276499">
        <ele>168.8</ele>
        <time>2019-11-26T06:10:35Z</time>
      </trkpt>
      <trkpt lat="56.875651341352" lon="14.810265351885">
        <ele>168.6</ele>
        <time>2019-11-26T06:10:42Z</time>
      </trkpt>
      <trkpt lat="56.87561881958" lon="14.810056894032">
        <ele>169</ele>
        <time>2019-11-26T06:10:47Z</time>
      </trkpt>
      <trkpt lat="56.875452355046" lon="14.80986930711">
        <ele>168.6</ele>
        <time>2019-11-26T06:10:54Z</time>
      </trkpt>
      <trkpt lat="56.875254877482" lon="14.809748356293">
        <ele>169.4</ele>
        <time>2019-11-26T06:11:01Z</time>
      </trkpt>
      <trkpt lat="56.875170890844" lon="14.809680211446">
        <ele>170</ele>
        <time>2019-11-26T06:11:04Z</time>
      </trkpt>
      <trkpt lat="56.874992356374" lon="14.809600164301">
        <ele>170.4</ele>
        <time>2019-11-26T06:11:11Z</time>
      </trkpt>
      <trkpt lat="56.874797980113" lon="14.809569738004">
        <ele>171</ele>
        <time>2019-11-26T06:11:18Z</time>
      </trkpt>
      <trkpt lat="56.874741737564" lon="14.80954911853">
        <ele>171.2</ele>
        <time>2019-11-26T06:11:20Z</time>
      </trkpt>
      <trkpt lat="56.874652721786" lon="14.809512824903">
        <ele>170</ele>
        <time>2019-11-26T06:11:23Z</time>
      </trkpt>
      <trkpt lat="56.874449628349" lon="14.80942925736">
        <ele>170.4</ele>
        <time>2019-11-26T06:11:30Z</time>
      </trkpt>
      <trkpt lat="56.874272770259" lon="14.809365219644">
        <ele>170.4</ele>
        <time>2019-11-26T06:11:36Z</time>
      </trkpt>
      <trkpt lat="56.874071604659" lon="14.809305121421">
        <ele>170</ele>
        <time>2019-11-26T06:11:42Z</time>
      </trkpt>
      <trkpt lat="56.873885275022" lon="14.809254327107">
        <ele>170.2</ele>
        <time>2019-11-26T06:11:48Z</time>
      </trkpt>
      <trkpt lat="56.873703303973" lon="14.80920462244">
        <ele>170</ele>
        <time>2019-11-26T06:11:54Z</time>
      </trkpt>
      <trkpt lat="56.873509598264" lon="14.809146368235">
        <ele>169.8</ele>
        <time>2019-11-26T06:12:00Z</time>
      </trkpt>
      <trkpt lat="56.873333578364" lon="14.809077469017">
        <ele>170</ele>
        <time>2019-11-26T06:12:06Z</time>
      </trkpt>
      <trkpt lat="56.873124785235" lon="14.809071182592">
        <ele>169.8</ele>
        <time>2019-11-26T06:12:13Z</time>
      </trkpt>
      <trkpt lat="56.872923787273" lon="14.80906883566">
        <ele>170.2</ele>
        <time>2019-11-26T06:12:19Z</time>
      </trkpt>
      <trkpt lat="56.872881877773" lon="14.80910320145">
        <ele>169</ele>
        <time>2019-11-26T06:12:20Z</time>
      </trkpt>
      <trkpt lat="56.872733350505" lon="14.809078139569">
        <ele>170</ele>
        <time>2019-11-26T06:12:24Z</time>
      </trkpt>
      <trkpt lat="56.872540902081" lon="14.809008821256">
        <ele>170.2</ele>
        <time>2019-11-26T06:12:30Z</time>
      </trkpt>
      <trkpt lat="56.872357841385" lon="14.808963391358">
        <ele>170</ele>
        <time>2019-11-26T06:12:36Z</time>
      </trkpt>
      <trkpt lat="56.872175115965" lon="14.808920056935">
        <ele>170.6</ele>
        <time>2019-11-26T06:12:42Z</time>
      </trkpt>
      <trkpt lat="56.871988283414" lon="14.808856605952">
        <ele>169.8</ele>
        <time>2019-11-26T06:12:48Z</time>
      </trkpt>
      <trkpt lat="56.871810251858" lon="14.808739678447">
        <ele>170.2</ele>
        <time>2019-11-26T06:12:54Z</time>
      </trkpt>
      <trkpt lat="56.871651833948" lon="14.808541781788">
        <ele>170</ele>
        <time>2019-11-26T06:13:00Z</time>
      </trkpt>
      <trkpt lat="56.871502133214" lon="14.808331396098">
        <ele>170</ele>
        <time>2019-11-26T06:13:06Z</time>
      </trkpt>
      <trkpt lat="56.871322173821" lon="14.808137438932">
        <ele>170.6</ele>
        <time>2019-11-26T06:13:13Z</time>
      </trkpt>
      <trkpt lat="56.87114791412" lon="14.807943314128">
        <ele>170.2</ele>
        <time>2019-11-26T06:13:20Z</time>
      </trkpt>
      <trkpt lat="56.870974492609" lon="14.807846922278">
        <ele>170.6</ele>
        <time>2019-11-26T06:13:26Z</time>
      </trkpt>
      <trkpt lat="56.870798807985" lon="14.807754637559">
        <ele>170</ele>
        <time>2019-11-26T06:13:32Z</time>
      </trkpt>
      <trkpt lat="56.870620189696" lon="14.807673165491">
        <ele>170.2</ele>
        <time>2019-11-26T06:13:38Z</time>
      </trkpt>
      <trkpt lat="56.870430339661" lon="14.807602338436">
        <ele>170.4</ele>
        <time>2019-11-26T06:13:44Z</time>
      </trkpt>
      <trkpt lat="56.870265383869" lon="14.807459846136">
        <ele>169.8</ele>
        <time>2019-11-26T06:13:50Z</time>
      </trkpt>
      <trkpt lat="56.870117527153" lon="14.807231858456">
        <ele>170.6</ele>
        <time>2019-11-26T06:13:56Z</time>
      </trkpt>
      <trkpt lat="56.869982410925" lon="14.806991549383">
        <ele>170</ele>
        <time>2019-11-26T06:14:02Z</time>
      </trkpt>
      <trkpt lat="56.869844696308" lon="14.806754006337">
        <ele>170.8</ele>
        <time>2019-11-26T06:14:08Z</time>
      </trkpt>
      <trkpt lat="56.869819969703" lon="14.806715868692">
        <ele>171</ele>
        <time>2019-11-26T06:14:09Z</time>
      </trkpt>
      <trkpt lat="56.869679069964" lon="14.806502800794">
        <ele>170.8</ele>
        <time>2019-11-26T06:14:15Z</time>
      </trkpt>
      <trkpt lat="56.869589886548" lon="14.806197112901">
        <ele>171</ele>
        <time>2019-11-26T06:14:21Z</time>
      </trkpt>
      <trkpt lat="56.869514449448" lon="14.805884468031">
        <ele>171.2</ele>
        <time>2019-11-26T06:14:27Z</time>
      </trkpt>
      <trkpt lat="56.869462733125" lon="14.805517676087">
        <ele>171.4</ele>
        <time>2019-11-26T06:14:34Z</time>
      </trkpt>
      <trkpt lat="56.869440688728" lon="14.805186004304">
        <ele>170.8</ele>
        <time>2019-11-26T06:14:40Z</time>
      </trkpt>
      <trkpt lat="56.869415794485" lon="14.80483094702">
        <ele>170.6</ele>
        <time>2019-11-26T06:14:45Z</time>
      </trkpt>
      <trkpt lat="56.869484023151" lon="14.804471112053">
        <ele>170.8</ele>
        <time>2019-11-26T06:14:52Z</time>
      </trkpt>
      <trkpt lat="56.869530710334" lon="14.804109181611">
        <ele>171</ele>
        <time>2019-11-26T06:15:00Z</time>
      </trkpt>
      <trkpt lat="56.869509420308" lon="14.80372705079">
        <ele>171.2</ele>
        <time>2019-11-26T06:15:07Z</time>
      </trkpt>
      <trkpt lat="56.869406825852" lon="14.803422368725">
        <ele>170.8</ele>
        <time>2019-11-26T06:15:13Z</time>
      </trkpt>
      <trkpt lat="56.869304063758" lon="14.803107125466">
        <ele>171.6</ele>
        <time>2019-11-26T06:15:19Z</time>
      </trkpt>
      <trkpt lat="56.869149501522" lon="14.802864888556">
        <ele>171.4</ele>
        <time>2019-11-26T06:15:25Z</time>
      </trkpt>
      <trkpt lat="56.869078003915" lon="14.802679229471">
        <ele>172.2</ele>
        <time>2019-11-26T06:15:29Z</time>
      </trkpt>
      <trkpt lat="56.868972559613" lon="14.802399106373">
        <ele>172</ele>
        <time>2019-11-26T06:15:35Z</time>
      </trkpt>
      <trkpt lat="56.868860828886" lon="14.802112193936">
        <ele>172.6</ele>
        <time>2019-11-26T06:15:41Z</time>
      </trkpt>
      <trkpt lat="56.868761754828" lon="14.801835088322">
        <ele>172</ele>
        <time>2019-11-26T06:15:47Z</time>
      </trkpt>
      <trkpt lat="56.868646503703" lon="14.801516157027">
        <ele>172.2</ele>
        <time>2019-11-26T06:15:54Z</time>
      </trkpt>
      <trkpt lat="56.868527313085" lon="14.801200997587">
        <ele>172.4</ele>
        <time>2019-11-26T06:16:01Z</time>
      </trkpt>
      <trkpt lat="56.868416839643" lon="14.800926490362">
        <ele>171.8</ele>
        <time>2019-11-26T06:16:07Z</time>
      </trkpt>
      <trkpt lat="56.868329332607" lon="14.800625831609">
        <ele>172.4</ele>
        <time>2019-11-26T06:16:13Z</time>
      </trkpt>
      <trkpt lat="56.868233695128" lon="14.800342188113">
        <ele>172.2</ele>
        <time>2019-11-26T06:16:19Z</time>
      </trkpt>
      <trkpt lat="56.868133112328" lon="14.800016467479">
        <ele>172.4</ele>
        <time>2019-11-26T06:16:26Z</time>
      </trkpt>
      <trkpt lat="56.868055495934" lon="14.799682700221">
        <ele>172.4</ele>
        <time>2019-11-26T06:16:33Z</time>
      </trkpt>
      <trkpt lat="56.868026075465" lon="14.799338623226">
        <ele>172.8</ele>
        <time>2019-11-26T06:16:39Z</time>
      </trkpt>
      <trkpt lat="56.868051807898" lon="14.798988427444">
        <ele>172.8</ele>
        <time>2019-11-26T06:16:45Z</time>
      </trkpt>
      <trkpt lat="56.868098411262" lon="14.798637225834">
        <ele>172.8</ele>
        <time>2019-11-26T06:16:52Z</time>
      </trkpt>
      <trkpt lat="56.868162700435" lon="14.798306643698">
        <ele>173.2</ele>
        <time>2019-11-26T06:16:59Z</time>
      </trkpt>
      <trkpt lat="56.868217266604" lon="14.797942533962">
        <ele>173.2</ele>
        <time>2019-11-26T06:17:06Z</time>
      </trkpt>
      <trkpt lat="56.868295385912" lon="14.797628799445">
        <ele>173.4</ele>
        <time>2019-11-26T06:17:12Z</time>
      </trkpt>
      <trkpt lat="56.868378450541" lon="14.797311125435">
        <ele>173.4</ele>
        <time>2019-11-26T06:17:18Z</time>
      </trkpt>
      <trkpt lat="56.868437459117" lon="14.796993954339">
        <ele>173.2</ele>
        <time>2019-11-26T06:17:24Z</time>
      </trkpt>
      <trkpt lat="56.86848498449" lon="14.796666892601">
        <ele>173.4</ele>
        <time>2019-11-26T06:17:30Z</time>
      </trkpt>
      <trkpt lat="56.868565199273" lon="14.796323234701">
        <ele>173.6</ele>
        <time>2019-11-26T06:17:37Z</time>
      </trkpt>
      <trkpt lat="56.868616496501" lon="14.79600229175">
        <ele>173.4</ele>
        <time>2019-11-26T06:17:43Z</time>
      </trkpt>
      <trkpt lat="56.868689754307" lon="14.795688976328">
        <ele>173.8</ele>
        <time>2019-11-26T06:17:49Z</time>
      </trkpt>
      <trkpt lat="56.868774327678" lon="14.79538035477">
        <ele>173</ele>
        <time>2019-11-26T06:17:55Z</time>
      </trkpt>
      <trkpt lat="56.868855296832" lon="14.795080031293">
        <ele>173</ele>
        <time>2019-11-26T06:18:01Z</time>
      </trkpt>
      <trkpt lat="56.868932075036" lon="14.794778785807">
        <ele>173.2</ele>
        <time>2019-11-26T06:18:07Z</time>
      </trkpt>
      <trkpt lat="56.86899963315" lon="14.794469996611">
        <ele>173.2</ele>
        <time>2019-11-26T06:18:13Z</time>
      </trkpt>
      <trkpt lat="56.869065598703" lon="14.794165733641">
        <ele>173.2</ele>
        <time>2019-11-26T06:18:19Z</time>
      </trkpt>
      <trkpt lat="56.869099796855" lon="14.793819812628">
        <ele>173.2</ele>
        <time>2019-11-26T06:18:25Z</time>
      </trkpt>
      <trkpt lat="56.869132234808" lon="14.793488224664">
        <ele>173.4</ele>
        <time>2019-11-26T06:18:31Z</time>
      </trkpt>
      <trkpt lat="56.869166600598" lon="14.793312623859">
        <ele>173.4</ele>
        <time>2019-11-26T06:18:35Z</time>
      </trkpt>
      <trkpt lat="56.869333065132" lon="14.793477747289">
        <ele>173.2</ele>
        <time>2019-11-26T06:18:42Z</time>
      </trkpt>
      <trkpt lat="56.869419482521" lon="14.793639350321">
        <ele>174.2</ele>
        <time>2019-11-26T06:18:47Z</time>
      </trkpt>
      <trkpt lat="56.869565327581" lon="14.793761893699">
        <ele>175.4</ele>
        <time>2019-11-26T06:18:53Z</time>
      </trkpt>
      <trkpt lat="56.869618049732" lon="14.793718810733">
        <ele>175.2</ele>
        <time>2019-11-26T06:18:55Z</time>
      </trkpt>
      <trkpt lat="56.869730786287" lon="14.793426282423">
        <ele>175.6</ele>
        <time>2019-11-26T06:19:01Z</time>
      </trkpt>
      <trkpt lat="56.869816281667" lon="14.793133083561">
        <ele>176</ele>
        <time>2019-11-26T06:19:07Z</time>
      </trkpt>
      <trkpt lat="56.869906387092" lon="14.792896211067">
        <ele>176.4</ele>
        <time>2019-11-26T06:19:12Z</time>
      </trkpt>
      <trkpt lat="56.870014345964" lon="14.792633689959">
        <ele>176.8</ele>
        <time>2019-11-26T06:19:18Z</time>
      </trkpt>
      <trkpt lat="56.870181900145" lon="14.792463537389">
        <ele>177.2</ele>
        <time>2019-11-26T06:19:25Z</time>
      </trkpt>
      <trkpt lat="56.870369822343" lon="14.792582895645">
        <ele>177.2</ele>
        <time>2019-11-26T06:19:32Z</time>
      </trkpt>
      <trkpt lat="56.870396812061" lon="14.792598066884">
        <ele>177.6</ele>
        <time>2019-11-26T06:19:33Z</time>
      </trkpt>
      <trkpt lat="56.870574843617" lon="14.792681718246">
        <ele>177.6</ele>
        <time>2019-11-26T06:19:40Z</time>
      </trkpt>
      <trkpt lat="56.870746253472" lon="14.79277777482">
        <ele>178.6</ele>
        <time>2019-11-26T06:19:47Z</time>
      </trkpt>
      <trkpt lat="56.870918836793" lon="14.79289009228">
        <ele>178.6</ele>
        <time>2019-11-26T06:19:53Z</time>
      </trkpt>
      <trkpt lat="56.871095611064" lon="14.792995536582">
        <ele>179.2</ele>
        <time>2019-11-26T06:20:00Z</time>
      </trkpt>
      <trkpt lat="56.871225362876" lon="14.793052868778">
        <ele>179.6</ele>
        <time>2019-11-26T06:20:05Z</time>
      </trkpt>
      <trkpt lat="56.871412111608" lon="14.793121348901">
        <ele>180.4</ele>
        <time>2019-11-26T06:20:12Z</time>
      </trkpt>
      <trkpt lat="56.871613863941" lon="14.793082792161">
        <ele>180.6</ele>
        <time>2019-11-26T06:20:18Z</time>
      </trkpt>
      <trkpt lat="56.871798684836" lon="14.792978772782">
        <ele>180.2</ele>
        <time>2019-11-26T06:20:24Z</time>
      </trkpt>
      <trkpt lat="56.871983086636" lon="14.792886236606">
        <ele>180</ele>
        <time>2019-11-26T06:20:31Z</time>
      </trkpt>
      <trkpt lat="56.87216715316" lon="14.792844746201">
        <ele>180.6</ele>
        <time>2019-11-26T06:20:37Z</time>
      </trkpt>
      <trkpt lat="56.872374856642" lon="14.79288338676">
        <ele>180.6</ele>
        <time>2019-11-26T06:20:44Z</time>
      </trkpt>
      <trkpt lat="56.872528245412" lon="14.792957818032">
        <ele>180.4</ele>
        <time>2019-11-26T06:20:51Z</time>
      </trkpt>
      <trkpt lat="56.872722621673" lon="14.792856061766">
        <ele>180.6</ele>
        <time>2019-11-26T06:20:57Z</time>
      </trkpt>
      <trkpt lat="56.872906688197" lon="14.792759921373">
        <ele>180.4</ele>
        <time>2019-11-26T06:21:02Z</time>
      </trkpt>
      <trkpt lat="56.873085474124" lon="14.792729075981">
        <ele>179.8</ele>
        <time>2019-11-26T06:21:08Z</time>
      </trkpt>
      <trkpt lat="56.873237857066" lon="14.792734021302">
        <ele>180.4</ele>
        <time>2019-11-26T06:21:15Z</time>
      </trkpt>
      <trkpt lat="56.873242802387" lon="14.792722621918">
        <ele>180.4</ele>
        <time>2019-11-26T06:21:16Z</time>
      </trkpt>
    </trkseg>
  </trk>
</gpx>